sensor_id;sensor_type;location;lat;lon;timestamp;pressure;altitude;pressure_sealevel;temperature;humidity
72558;BME280;60583;50.094;8.748;2023-08-30T00:02:03;99751.72;;;14.61;96.30
72558;BME280;60583;50.094;8.748;2023-08-30T00:04:29;99771.25;;;14.73;95.78
72558;BME280;60583;50.094;8.748;2023-08-30T00:06:54;99766.13;;;14.72;96.08
72558;BME280;60583;50.094;8.748;2023-08-30T00:09:20;99765.97;;;14.78;95.72
72558;BME280;60583;50.094;8.748;2023-08-30T00:11:45;99769.81;;;14.82;95.43
72558;BME280;60583;50.094;8.748;2023-08-30T00:14:10;99762.50;;;14.78;95.70
72558;BME280;60583;50.094;8.748;2023-08-30T00:16:36;99763.16;;;14.85;95.55
72558;BME280;60583;50.094;8.748;2023-08-30T00:19:03;99772.75;;;14.81;95.70
72558;BME280;60583;50.094;8.748;2023-08-30T00:21:29;99768.44;;;14.80;96.11
72558;BME280;60583;50.094;8.748;2023-08-30T00:23:54;99771.44;;;14.83;95.86
72558;BME280;60583;50.094;8.748;2023-08-30T00:26:19;99763.81;;;14.75;96.54
72558;BME280;60583;50.094;8.748;2023-08-30T00:28:45;99749.13;;;14.66;96.63
72558;BME280;60583;50.094;8.748;2023-08-30T00:31:10;99755.66;;;14.70;96.20
72558;BME280;60583;50.094;8.748;2023-08-30T00:33:37;99747.78;;;14.52;97.14
72558;BME280;60583;50.094;8.748;2023-08-30T00:36:03;99772.25;;;14.67;97.07
72558;BME280;60583;50.094;8.748;2023-08-30T00:38:29;99770.59;;;14.66;96.40
72558;BME280;60583;50.094;8.748;2023-08-30T00:40:54;99770.13;;;14.69;96.50
72558;BME280;60583;50.094;8.748;2023-08-30T00:43:20;99753.16;;;14.52;96.54
72558;BME280;60583;50.094;8.748;2023-08-30T00:45:47;99765.19;;;14.49;96.23
72558;BME280;60583;50.094;8.748;2023-08-30T00:48:14;99752.41;;;14.40;96.39
72558;BME280;60583;50.094;8.748;2023-08-30T00:50:41;99761.25;;;14.40;96.77
72558;BME280;60583;50.094;8.748;2023-08-30T00:53:07;99740.28;;;14.37;96.41
72558;BME280;60583;50.094;8.748;2023-08-30T00:55:34;99753.69;;;14.37;96.59
72558;BME280;60583;50.094;8.748;2023-08-30T00:58:00;99759.28;;;14.36;97.07
72558;BME280;60583;50.094;8.748;2023-08-30T01:00:30;99758.34;;;14.42;96.91
72558;BME280;60583;50.094;8.748;2023-08-30T01:02:56;99736.66;;;14.20;96.39
72558;BME280;60583;50.094;8.748;2023-08-30T01:05:22;99759.38;;;14.41;97.31
72558;BME280;60583;50.094;8.748;2023-08-30T01:07:49;99752.53;;;14.33;96.90
72558;BME280;60583;50.094;8.748;2023-08-30T01:10:15;99742.22;;;14.30;97.20
72558;BME280;60583;50.094;8.748;2023-08-30T01:12:45;99718.63;;;14.16;97.17
72558;BME280;60583;50.094;8.748;2023-08-30T01:15:18;99762.91;;;14.30;97.01
72558;BME280;60583;50.094;8.748;2023-08-30T01:17:47;99734.81;;;14.21;97.45
72558;BME280;60583;50.094;8.748;2023-08-30T01:20:14;99748.53;;;14.36;97.80
72558;BME280;60583;50.094;8.748;2023-08-30T01:22:57;99735.63;;;14.21;97.95
72558;BME280;60583;50.094;8.748;2023-08-30T01:28:20;99727.38;;;14.11;97.91
72558;BME280;60583;50.094;8.748;2023-08-30T01:30:46;99733.00;;;14.10;98.26
72558;BME280;60583;50.094;8.748;2023-08-30T01:33:14;99719.97;;;13.90;99.14
72558;BME280;60583;50.094;8.748;2023-08-30T01:35:40;99712.06;;;13.83;99.57
72558;BME280;60583;50.094;8.748;2023-08-30T01:38:07;99718.88;;;14.02;99.05
72558;BME280;60583;50.094;8.748;2023-08-30T01:40:37;99724.59;;;14.06;98.84
72558;BME280;60583;50.094;8.748;2023-08-30T01:43:05;99722.94;;;14.05;98.81
72558;BME280;60583;50.094;8.748;2023-08-30T01:45:33;99724.34;;;14.07;98.97
72558;BME280;60583;50.094;8.748;2023-08-30T01:48:00;99724.84;;;14.04;99.02
72558;BME280;60583;50.094;8.748;2023-08-30T01:50:26;99713.75;;;14.01;98.98
72558;BME280;60583;50.094;8.748;2023-08-30T01:52:52;99714.22;;;14.10;98.35
72558;BME280;60583;50.094;8.748;2023-08-30T01:55:20;99716.19;;;14.14;97.92
72558;BME280;60583;50.094;8.748;2023-08-30T01:57:46;99713.69;;;14.24;97.95
72558;BME280;60583;50.094;8.748;2023-08-30T02:00:12;99713.22;;;14.27;97.48
72558;BME280;60583;50.094;8.748;2023-08-30T02:02:38;99708.66;;;14.28;97.37
72558;BME280;60583;50.094;8.748;2023-08-30T02:05:03;99718.94;;;14.31;97.45
72558;BME280;60583;50.094;8.748;2023-08-30T02:07:58;99713.94;;;14.34;97.84
72558;BME280;60583;50.094;8.748;2023-08-30T02:10:33;99713.09;;;14.34;97.77
72558;BME280;60583;50.094;8.748;2023-08-30T02:13:00;99701.00;;;14.20;97.76
72558;BME280;60583;50.094;8.748;2023-08-30T02:15:29;99722.31;;;14.26;98.26
72558;BME280;60583;50.094;8.748;2023-08-30T02:17:55;99700.19;;;14.19;97.94
72558;BME280;60583;50.094;8.748;2023-08-30T02:20:22;99697.22;;;14.04;98.30
72558;BME280;60583;50.094;8.748;2023-08-30T02:22:47;99705.09;;;14.11;98.29
72558;BME280;60583;50.094;8.748;2023-08-30T02:25:13;99722.94;;;14.17;98.08
72558;BME280;60583;50.094;8.748;2023-08-30T02:27:38;99716.50;;;14.18;97.75
72558;BME280;60583;50.094;8.748;2023-08-30T02:30:04;99702.63;;;14.21;98.04
72558;BME280;60583;50.094;8.748;2023-08-30T02:32:30;99703.59;;;14.15;97.69
72558;BME280;60583;50.094;8.748;2023-08-30T02:34:56;99713.59;;;14.19;97.64
72558;BME280;60583;50.094;8.748;2023-08-30T02:37:22;99716.25;;;14.31;97.61
72558;BME280;60583;50.094;8.748;2023-08-30T02:39:47;99708.66;;;14.28;97.77
72558;BME280;60583;50.094;8.748;2023-08-30T02:42:13;99676.09;;;14.07;96.96
72558;BME280;60583;50.094;8.748;2023-08-30T02:44:38;99711.13;;;14.29;97.56
72558;BME280;60583;50.094;8.748;2023-08-30T02:47:04;99719.63;;;14.26;97.55
72558;BME280;60583;50.094;8.748;2023-08-30T02:49:29;99706.19;;;14.10;97.90
72558;BME280;60583;50.094;8.748;2023-08-30T02:51:55;99701.97;;;14.14;97.72
72558;BME280;60583;50.094;8.748;2023-08-30T02:54:20;99687.63;;;14.08;97.36
72558;BME280;60583;50.094;8.748;2023-08-30T02:56:47;99704.28;;;14.22;96.97
72558;BME280;60583;50.094;8.748;2023-08-30T02:59:13;99714.44;;;14.20;97.15
72558;BME280;60583;50.094;8.748;2023-08-30T03:01:38;99705.47;;;14.14;97.08
72558;BME280;60583;50.094;8.748;2023-08-30T03:04:07;99717.69;;;14.10;97.25
72558;BME280;60583;50.094;8.748;2023-08-30T03:06:33;99691.88;;;13.92;97.80
72558;BME280;60583;50.094;8.748;2023-08-30T03:08:59;99698.16;;;13.98;97.71
72558;BME280;60583;50.094;8.748;2023-08-30T03:11:25;99710.06;;;14.02;97.71
72558;BME280;60583;50.094;8.748;2023-08-30T03:13:50;99699.91;;;13.92;97.75
72558;BME280;60583;50.094;8.748;2023-08-30T03:16:16;99700.63;;;13.99;97.98
72558;BME280;60583;50.094;8.748;2023-08-30T03:18:43;99702.84;;;13.91;98.29
72558;BME280;60583;50.094;8.748;2023-08-30T03:21:09;99692.16;;;13.79;99.13
72558;BME280;60583;50.094;8.748;2023-08-30T03:23:35;99717.31;;;13.78;99.69
72558;BME280;60583;50.094;8.748;2023-08-30T03:26:13;99712.78;;;13.67;99.81
72558;BME280;60583;50.094;8.748;2023-08-30T03:28:39;99705.91;;;13.71;99.58
72558;BME280;60583;50.094;8.748;2023-08-30T03:31:20;99716.41;;;13.61;100.00
72558;BME280;60583;50.094;8.748;2023-08-30T03:33:46;99697.66;;;13.61;100.00
72558;BME280;60583;50.094;8.748;2023-08-30T03:36:14;99700.34;;;13.61;100.00
72558;BME280;60583;50.094;8.748;2023-08-30T03:38:40;99698.34;;;13.68;99.73
72558;BME280;60583;50.094;8.748;2023-08-30T03:41:05;99693.09;;;13.73;99.39
72558;BME280;60583;50.094;8.748;2023-08-30T03:43:31;99674.69;;;13.65;99.53
72558;BME280;60583;50.094;8.748;2023-08-30T03:45:58;99696.59;;;13.74;99.59
72558;BME280;60583;50.094;8.748;2023-08-30T03:48:24;99681.78;;;13.71;99.11
72558;BME280;60583;50.094;8.748;2023-08-30T03:50:50;99645.94;;;13.61;98.51
72558;BME280;60583;50.094;8.748;2023-08-30T03:53:15;99690.47;;;13.90;98.27
72558;BME280;60583;50.094;8.748;2023-08-30T03:55:41;99700.50;;;13.94;98.91
72558;BME280;60583;50.094;8.748;2023-08-30T03:58:06;99707.13;;;14.03;99.20
72558;BME280;60583;50.094;8.748;2023-08-30T04:00:32;99705.81;;;14.06;99.13
72558;BME280;60583;50.094;8.748;2023-08-30T04:02:57;99711.03;;;14.13;99.29
72558;BME280;60583;50.094;8.748;2023-08-30T04:05:23;99674.50;;;13.95;98.75
72558;BME280;60583;50.094;8.748;2023-08-30T04:07:48;99702.22;;;14.12;97.63
72558;BME280;60583;50.094;8.748;2023-08-30T04:10:13;99692.16;;;14.07;97.07
72558;BME280;60583;50.094;8.748;2023-08-30T04:12:39;99707.94;;;14.04;97.41
72558;BME280;60583;50.094;8.748;2023-08-30T04:15:04;99695.16;;;13.94;97.39
72558;BME280;60583;50.094;8.748;2023-08-30T04:17:30;99701.41;;;14.00;97.79
72558;BME280;60583;50.094;8.748;2023-08-30T04:19:55;99700.00;;;13.97;97.84
72558;BME280;60583;50.094;8.748;2023-08-30T04:22:21;99697.44;;;14.02;97.88
72558;BME280;60583;50.094;8.748;2023-08-30T04:24:46;99697.06;;;14.11;96.87
72558;BME280;60583;50.094;8.748;2023-08-30T04:27:12;99679.50;;;14.03;97.25
72558;BME280;60583;50.094;8.748;2023-08-30T04:29:37;99686.50;;;13.92;98.08
72558;BME280;60583;50.094;8.748;2023-08-30T04:32:03;99673.28;;;13.74;98.67
72558;BME280;60583;50.094;8.748;2023-08-30T04:34:28;99687.47;;;13.86;98.38
72558;BME280;60583;50.094;8.748;2023-08-30T04:36:55;99682.56;;;13.83;98.21
72558;BME280;60583;50.094;8.748;2023-08-30T04:39:21;99687.44;;;13.98;98.14
72558;BME280;60583;50.094;8.748;2023-08-30T04:41:46;99700.81;;;14.10;98.06
72558;BME280;60583;50.094;8.748;2023-08-30T04:44:12;99687.97;;;14.12;98.22
72558;BME280;60583;50.094;8.748;2023-08-30T04:46:37;99684.72;;;14.10;97.60
72558;BME280;60583;50.094;8.748;2023-08-30T04:49:02;99711.25;;;14.23;98.36
72558;BME280;60583;50.094;8.748;2023-08-30T04:51:28;99688.75;;;14.24;97.59
72558;BME280;60583;50.094;8.748;2023-08-30T04:53:54;99661.63;;;14.08;97.25
72558;BME280;60583;50.094;8.748;2023-08-30T04:56:19;99690.41;;;14.13;97.75
72558;BME280;60583;50.094;8.748;2023-08-30T04:58:44;99693.81;;;14.08;97.42
72558;BME280;60583;50.094;8.748;2023-08-30T05:01:10;99693.72;;;14.03;98.32
72558;BME280;60583;50.094;8.748;2023-08-30T05:03:38;99682.22;;;13.91;98.59
72558;BME280;60583;50.094;8.748;2023-08-30T05:06:04;99684.06;;;13.91;99.00
72558;BME280;60583;50.094;8.748;2023-08-30T05:08:29;99667.28;;;13.95;98.68
72558;BME280;60583;50.094;8.748;2023-08-30T05:10:55;99675.22;;;13.90;98.86
72558;BME280;60583;50.094;8.748;2023-08-30T05:13:20;99693.84;;;13.97;99.38
72558;BME280;60583;50.094;8.748;2023-08-30T05:15:45;99692.47;;;13.94;99.65
72558;BME280;60583;50.094;8.748;2023-08-30T05:18:11;99696.41;;;14.03;99.24
72558;BME280;60583;50.094;8.748;2023-08-30T05:20:36;99702.44;;;14.11;98.67
72558;BME280;60583;50.094;8.748;2023-08-30T05:23:02;99712.22;;;14.17;97.91
72558;BME280;60583;50.094;8.748;2023-08-30T05:25:27;99694.66;;;13.97;99.41
72558;BME280;60583;50.094;8.748;2023-08-30T05:27:53;99711.75;;;14.08;99.53
72558;BME280;60583;50.094;8.748;2023-08-30T05:30:19;99691.88;;;13.92;98.75
72558;BME280;60583;50.094;8.748;2023-08-30T05:32:44;99699.53;;;14.00;99.30
72558;BME280;60583;50.094;8.748;2023-08-30T05:35:10;99685.19;;;14.06;98.66
72558;BME280;60583;50.094;8.748;2023-08-30T05:37:35;99709.25;;;14.30;98.76
72558;BME280;60583;50.094;8.748;2023-08-30T05:40:00;99695.41;;;14.21;98.50
72558;BME280;60583;50.094;8.748;2023-08-30T05:42:26;99694.84;;;14.19;98.31
72558;BME280;60583;50.094;8.748;2023-08-30T05:44:53;99698.69;;;14.12;98.90
72558;BME280;60583;50.094;8.748;2023-08-30T05:47:18;99698.97;;;13.98;99.71
72558;BME280;60583;50.094;8.748;2023-08-30T05:49:44;99704.81;;;13.95;99.90
72558;BME280;60583;50.094;8.748;2023-08-30T05:52:09;99708.59;;;14.11;99.47
72558;BME280;60583;50.094;8.748;2023-08-30T05:54:35;99701.75;;;14.03;100.00
72558;BME280;60583;50.094;8.748;2023-08-30T05:57:00;99709.06;;;14.08;100.00
72558;BME280;60583;50.094;8.748;2023-08-30T05:59:25;99691.84;;;14.04;100.00
72558;BME280;60583;50.094;8.748;2023-08-30T06:01:51;99683.81;;;14.04;99.82
72558;BME280;60583;50.094;8.748;2023-08-30T06:04:16;99684.22;;;14.13;99.53
72558;BME280;60583;50.094;8.748;2023-08-30T06:06:42;99659.06;;;14.14;98.67
72558;BME280;60583;50.094;8.748;2023-08-30T06:09:07;99686.47;;;14.44;98.75
72558;BME280;60583;50.094;8.748;2023-08-30T06:11:32;99679.91;;;14.51;97.63
72558;BME280;60583;50.094;8.748;2023-08-30T06:13:58;99679.16;;;14.56;97.27
72558;BME280;60583;50.094;8.748;2023-08-30T06:16:25;99695.31;;;14.73;97.13
72558;BME280;60583;50.094;8.748;2023-08-30T06:18:50;99688.47;;;14.65;96.91
72558;BME280;60583;50.094;8.748;2023-08-30T06:21:16;99701.28;;;14.63;97.29
72558;BME280;60583;50.094;8.748;2023-08-30T06:23:41;99690.00;;;14.61;97.71
72558;BME280;60583;50.094;8.748;2023-08-30T06:26:06;99675.09;;;14.53;97.73
72558;BME280;60583;50.094;8.748;2023-08-30T06:28:32;99650.38;;;14.51;97.44
72558;BME280;60583;50.094;8.748;2023-08-30T06:30:57;99694.88;;;14.81;97.10
72558;BME280;60583;50.094;8.748;2023-08-30T06:33:23;99681.81;;;14.84;96.89
72558;BME280;60583;50.094;8.748;2023-08-30T06:35:49;99668.47;;;14.89;96.00
72558;BME280;60583;50.094;8.748;2023-08-30T06:38:19;99659.44;;;14.79;95.75
72558;BME280;60583;50.094;8.748;2023-08-30T06:40:45;99668.28;;;14.96;95.89
72558;BME280;60583;50.094;8.748;2023-08-30T06:43:11;99671.72;;;15.08;96.31
72558;BME280;60583;50.094;8.748;2023-08-30T06:45:41;99673.59;;;15.07;95.47
72558;BME280;60583;50.094;8.748;2023-08-30T06:48:07;99675.47;;;15.07;96.09
72558;BME280;60583;50.094;8.748;2023-08-30T06:50:35;99676.09;;;15.14;95.72
72558;BME280;60583;50.094;8.748;2023-08-30T06:53:02;99684.56;;;15.22;96.20
72558;BME280;60583;50.094;8.748;2023-08-30T06:55:27;99668.38;;;15.17;95.51
72558;BME280;60583;50.094;8.748;2023-08-30T06:57:53;99672.41;;;15.37;94.87
72558;BME280;60583;50.094;8.748;2023-08-30T07:00:18;99664.84;;;15.50;94.84
72558;BME280;60583;50.094;8.748;2023-08-30T07:02:44;99666.50;;;15.73;95.79
72558;BME280;60583;50.094;8.748;2023-08-30T07:05:11;99659.66;;;15.87;94.73
72558;BME280;60583;50.094;8.748;2023-08-30T07:07:37;99672.47;;;16.02;92.86
72558;BME280;60583;50.094;8.748;2023-08-30T07:10:03;99669.22;;;16.00;92.37
72558;BME280;60583;50.094;8.748;2023-08-30T07:12:29;99665.28;;;16.07;92.65
72558;BME280;60583;50.094;8.748;2023-08-30T07:14:54;99657.66;;;15.99;92.67
72558;BME280;60583;50.094;8.748;2023-08-30T07:17:20;99656.44;;;15.85;93.62
72558;BME280;60583;50.094;8.748;2023-08-30T07:19:45;99673.22;;;16.19;93.36
72558;BME280;60583;50.094;8.748;2023-08-30T07:22:11;99652.66;;;16.34;92.37
72558;BME280;60583;50.094;8.748;2023-08-30T07:24:36;99649.84;;;16.46;92.00
72558;BME280;60583;50.094;8.748;2023-08-30T07:27:02;99665.41;;;16.44;92.43
72558;BME280;60583;50.094;8.748;2023-08-30T07:29:28;99657.81;;;16.63;92.02
72558;BME280;60583;50.094;8.748;2023-08-30T07:31:53;99658.03;;;16.56;92.42
72558;BME280;60583;50.094;8.748;2023-08-30T07:34:20;99650.34;;;16.70;91.80
72558;BME280;60583;50.094;8.748;2023-08-30T07:36:46;99654.06;;;16.64;91.69
72558;BME280;60583;50.094;8.748;2023-08-30T07:39:11;99642.38;;;16.53;91.84
72558;BME280;60583;50.094;8.748;2023-08-30T07:41:37;99657.69;;;16.79;91.86
72558;BME280;60583;50.094;8.748;2023-08-30T07:44:02;99628.97;;;16.58;92.57
72558;BME280;60583;50.094;8.748;2023-08-30T07:46:28;99644.72;;;16.71;92.83
72558;BME280;60583;50.094;8.748;2023-08-30T07:48:54;99661.84;;;16.97;92.38
72558;BME280;60583;50.094;8.748;2023-08-30T07:51:19;99653.31;;;17.05;92.12
72558;BME280;60583;50.094;8.748;2023-08-30T07:53:44;99645.22;;;17.05;91.64
72558;BME280;60583;50.094;8.748;2023-08-30T07:56:10;99653.38;;;17.15;91.21
72558;BME280;60583;50.094;8.748;2023-08-30T07:58:35;99665.00;;;17.20;91.37
72558;BME280;60583;50.094;8.748;2023-08-30T08:01:01;99660.31;;;17.06;90.43
72558;BME280;60583;50.094;8.748;2023-08-30T08:03:26;99663.09;;;17.16;91.08
72558;BME280;60583;50.094;8.748;2023-08-30T08:05:51;99659.22;;;17.07;90.21
72558;BME280;60583;50.094;8.748;2023-08-30T08:08:17;99668.44;;;17.11;90.18
72558;BME280;60583;50.094;8.748;2023-08-30T08:10:43;99659.31;;;17.17;89.99
72558;BME280;60583;50.094;8.748;2023-08-30T08:13:09;99655.19;;;17.04;90.48
72558;BME280;60583;50.094;8.748;2023-08-30T08:15:34;99654.66;;;17.07;90.77
72558;BME280;60583;50.094;8.748;2023-08-30T08:18:00;99623.34;;;16.96;88.90
72558;BME280;60583;50.094;8.748;2023-08-30T08:20:26;99672.38;;;17.35;87.39
72558;BME280;60583;50.094;8.748;2023-08-30T08:22:52;99672.78;;;17.54;86.89
72558;BME280;60583;50.094;8.748;2023-08-30T08:25:17;99662.34;;;17.72;86.72
72558;BME280;60583;50.094;8.748;2023-08-30T08:27:42;99664.28;;;17.77;84.74
72558;BME280;60583;50.094;8.748;2023-08-30T08:30:08;99645.91;;;17.69;84.79
72558;BME280;60583;50.094;8.748;2023-08-30T08:32:35;99667.88;;;18.03;84.56
72558;BME280;60583;50.094;8.748;2023-08-30T08:35:01;99667.38;;;18.16;83.72
72558;BME280;60583;50.094;8.748;2023-08-30T08:37:26;99669.19;;;17.90;81.91
72558;BME280;60583;50.094;8.748;2023-08-30T08:39:51;99664.00;;;17.73;84.02
72558;BME280;60583;50.094;8.748;2023-08-30T08:42:20;99649.56;;;18.05;82.85
72558;BME280;60583;50.094;8.748;2023-08-30T08:44:53;99660.44;;;18.35;80.49
72558;BME280;60583;50.094;8.748;2023-08-30T08:47:20;99635.03;;;18.41;79.82
72558;BME280;60583;50.094;8.748;2023-08-30T08:49:47;99670.75;;;18.58;79.76
72558;BME280;60583;50.094;8.748;2023-08-30T08:52:13;99664.25;;;18.54;78.81
72558;BME280;60583;50.094;8.748;2023-08-30T08:54:40;99656.38;;;18.27;78.79
72558;BME280;60583;50.094;8.748;2023-08-30T08:57:08;99664.78;;;18.51;78.76
72558;BME280;60583;50.094;8.748;2023-08-30T08:59:34;99649.66;;;18.45;77.93
72558;BME280;60583;50.094;8.748;2023-08-30T09:02:00;99670.69;;;18.43;78.44
72558;BME280;60583;50.094;8.748;2023-08-30T09:04:26;99666.16;;;18.64;78.42
72558;BME280;60583;50.094;8.748;2023-08-30T09:06:54;99653.47;;;18.64;79.38
72558;BME280;60583;50.094;8.748;2023-08-30T09:09:20;99657.81;;;19.00;79.13
72558;BME280;60583;50.094;8.748;2023-08-30T09:11:45;99656.97;;;19.10;77.86
72558;BME280;60583;50.094;8.748;2023-08-30T09:14:11;99668.88;;;18.99;77.45
72558;BME280;60583;50.094;8.748;2023-08-30T09:16:36;99647.78;;;18.91;77.04
72558;BME280;60583;50.094;8.748;2023-08-30T09:19:03;99655.63;;;19.02;76.81
72558;BME280;60583;50.094;8.748;2023-08-30T09:21:29;99666.16;;;19.04;76.33
72558;BME280;60583;50.094;8.748;2023-08-30T09:24:04;99660.47;;;19.36;73.85
72558;BME280;60583;50.094;8.748;2023-08-30T09:26:31;99649.38;;;19.47;73.28
72558;BME280;60583;50.094;8.748;2023-08-30T09:29:06;99649.09;;;19.34;73.34
72558;BME280;60583;50.094;8.748;2023-08-30T09:31:33;99651.53;;;19.45;73.58
72558;BME280;60583;50.094;8.748;2023-08-30T09:33:59;99640.94;;;19.54;73.16
72558;BME280;60583;50.094;8.748;2023-08-30T09:36:32;99646.84;;;19.81;73.34
72558;BME280;60583;50.094;8.748;2023-08-30T09:38:57;99636.19;;;19.95;71.57
72558;BME280;60583;50.094;8.748;2023-08-30T09:41:24;99634.69;;;20.27;70.02
72558;BME280;60583;50.094;8.748;2023-08-30T09:43:50;99635.25;;;20.24;68.97
72558;BME280;60583;50.094;8.748;2023-08-30T09:46:15;99627.09;;;20.29;69.18
72558;BME280;60583;50.094;8.748;2023-08-30T09:48:41;99615.66;;;20.38;67.50
72558;BME280;60583;50.094;8.748;2023-08-30T09:51:07;99619.78;;;20.69;66.88
72558;BME280;60583;50.094;8.748;2023-08-30T09:53:40;99627.09;;;20.97;64.94
72558;BME280;60583;50.094;8.748;2023-08-30T09:56:09;99615.66;;;21.34;64.73
72558;BME280;60583;50.094;8.748;2023-08-30T09:58:37;99615.31;;;21.64;63.40
72558;BME280;60583;50.094;8.748;2023-08-30T10:01:03;99587.13;;;21.60;62.74
72558;BME280;60583;50.094;8.748;2023-08-30T10:03:30;99598.59;;;21.57;63.11
72558;BME280;60583;50.094;8.748;2023-08-30T10:05:56;99598.75;;;21.42;63.70
72558;BME280;60583;50.094;8.748;2023-08-30T10:08:23;99603.75;;;21.77;62.02
72558;BME280;60583;50.094;8.748;2023-08-30T10:10:50;99580.13;;;22.71;59.79
72558;BME280;60583;50.094;8.748;2023-08-30T10:13:17;99604.06;;;22.69;58.01
72558;BME280;60583;50.094;8.748;2023-08-30T10:15:45;99592.91;;;23.30;56.96
72558;BME280;60583;50.094;8.748;2023-08-30T10:18:15;99588.81;;;24.23;54.22
72558;BME280;60583;50.094;8.748;2023-08-30T10:20:41;99577.00;;;24.27;52.60
72558;BME280;60583;50.094;8.748;2023-08-30T10:23:07;99589.72;;;23.69;54.03
72558;BME280;60583;50.094;8.748;2023-08-30T10:25:34;99582.75;;;24.26;51.99
72558;BME280;60583;50.094;8.748;2023-08-30T10:28:00;99567.41;;;24.96;50.54
72558;BME280;60583;50.094;8.748;2023-08-30T10:30:26;99583.09;;;25.21;50.75
72558;BME280;60583;50.094;8.748;2023-08-30T10:32:52;99575.09;;;24.50;50.77
72558;BME280;60583;50.094;8.748;2023-08-30T10:35:19;99575.03;;;25.56;49.20
72558;BME280;60583;50.094;8.748;2023-08-30T10:37:58;99581.75;;;25.10;49.16
72558;BME280;60583;50.094;8.748;2023-08-30T10:40:24;99577.97;;;25.28;47.41
72558;BME280;60583;50.094;8.748;2023-08-30T10:43:00;99549.13;;;25.05;48.21
72558;BME280;60583;50.094;8.748;2023-08-30T10:45:25;99574.47;;;25.84;46.51
72558;BME280;60583;50.094;8.748;2023-08-30T10:47:54;99571.50;;;24.63;50.43
72558;BME280;60583;50.094;8.748;2023-08-30T10:50:27;99573.31;;;25.29;49.35
72558;BME280;60583;50.094;8.748;2023-08-30T10:52:56;99565.97;;;26.03;47.04
72558;BME280;60583;50.094;8.748;2023-08-30T10:55:22;99549.59;;;27.18;44.12
72558;BME280;60583;50.094;8.748;2023-08-30T10:58:02;99568.44;;;25.48;46.41
72558;BME280;60583;50.094;8.748;2023-08-30T11:00:29;99567.34;;;25.66;45.97
72558;BME280;60583;50.094;8.748;2023-08-30T11:02:55;99559.91;;;26.40;44.09
72558;BME280;60583;50.094;8.748;2023-08-30T11:05:23;99559.47;;;25.56;45.53
72558;BME280;60583;50.094;8.748;2023-08-30T11:07:49;99565.09;;;25.20;46.08
72558;BME280;60583;50.094;8.748;2023-08-30T11:10:16;99560.38;;;26.42;43.53
72558;BME280;60583;50.094;8.748;2023-08-30T11:12:43;99557.91;;;27.30;40.57
72558;BME280;60583;50.094;8.748;2023-08-30T11:15:10;99549.31;;;27.02;41.30
72558;BME280;60583;50.094;8.748;2023-08-30T11:17:35;99546.88;;;26.29;43.68
72558;BME280;60583;50.094;8.748;2023-08-30T11:20:09;99553.88;;;26.81;42.89
72558;BME280;60583;50.094;8.748;2023-08-30T11:22:39;99545.66;;;26.90;41.62
72558;BME280;60583;50.094;8.748;2023-08-30T11:25:05;99544.53;;;27.66;39.67
72558;BME280;60583;50.094;8.748;2023-08-30T11:27:31;99544.72;;;27.82;40.24
72558;BME280;60583;50.094;8.748;2023-08-30T11:30:03;99533.94;;;26.72;40.99
72558;BME280;60583;50.094;8.748;2023-08-30T11:32:41;99532.47;;;25.55;43.41
72558;BME280;60583;50.094;8.748;2023-08-30T11:35:10;99536.53;;;27.23;41.03
72558;BME280;60583;50.094;8.748;2023-08-30T11:37:35;99531.28;;;26.38;41.47
72558;BME280;60583;50.094;8.748;2023-08-30T11:40:02;99519.50;;;27.47;39.36
72558;BME280;60583;50.094;8.748;2023-08-30T11:42:30;99527.34;;;25.62;42.50
72558;BME280;60583;50.094;8.748;2023-08-30T11:44:55;99512.28;;;26.24;41.42
72558;BME280;60583;50.094;8.748;2023-08-30T11:47:26;99501.56;;;26.83;40.54
72558;BME280;60583;50.094;8.748;2023-08-30T11:49:53;99503.84;;;27.18;39.97
72558;BME280;60583;50.094;8.748;2023-08-30T11:52:19;99499.72;;;25.55;42.61
72558;BME280;60583;50.094;8.748;2023-08-30T11:54:47;99514.44;;;24.22;45.00
72558;BME280;60583;50.094;8.748;2023-08-30T11:57:13;99499.19;;;23.63;45.74
72558;BME280;60583;50.094;8.748;2023-08-30T11:59:38;99509.97;;;23.68;47.13
72558;BME280;60583;50.094;8.748;2023-08-30T12:02:05;99494.91;;;24.51;44.59
72558;BME280;60583;50.094;8.748;2023-08-30T12:04:32;99496.25;;;24.09;45.73
72558;BME280;60583;50.094;8.748;2023-08-30T12:06:58;99499.91;;;25.92;41.77
72558;BME280;60583;50.094;8.748;2023-08-30T12:09:30;99498.13;;;25.62;42.12
72558;BME280;60583;50.094;8.748;2023-08-30T12:12:05;99478.50;;;26.92;39.94
72558;BME280;60583;50.094;8.748;2023-08-30T12:14:34;99502.44;;;27.92;38.41
72558;BME280;60583;50.094;8.748;2023-08-30T12:17:00;99487.44;;;28.10;37.91
72558;BME280;60583;50.094;8.748;2023-08-30T12:19:28;99500.44;;;28.01;37.98
72558;BME280;60583;50.094;8.748;2023-08-30T12:21:53;99491.34;;;28.41;38.29
72558;BME280;60583;50.094;8.748;2023-08-30T12:24:18;99492.81;;;28.27;37.47
72558;BME280;60583;50.094;8.748;2023-08-30T12:26:44;99482.72;;;27.19;40.10
72558;BME280;60583;50.094;8.748;2023-08-30T12:29:09;99482.13;;;26.58;40.52
72558;BME280;60583;50.094;8.748;2023-08-30T12:31:34;99495.97;;;26.71;41.18
72558;BME280;60583;50.094;8.748;2023-08-30T12:34:00;99505.03;;;25.85;42.72
72558;BME280;60583;50.094;8.748;2023-08-30T12:36:26;99490.63;;;25.28;42.56
72558;BME280;60583;50.094;8.748;2023-08-30T12:38:51;99505.53;;;24.83;44.17
72558;BME280;60583;50.094;8.748;2023-08-30T12:41:17;99481.66;;;25.36;42.96
72558;BME280;60583;50.094;8.748;2023-08-30T12:43:42;99485.44;;;25.18;43.82
72558;BME280;60583;50.094;8.748;2023-08-30T12:46:07;99469.66;;;25.55;42.61
72558;BME280;60583;50.094;8.748;2023-08-30T12:48:33;99487.19;;;26.05;40.96
72558;BME280;60583;50.094;8.748;2023-08-30T12:50:58;99475.13;;;25.72;41.69
72558;BME280;60583;50.094;8.748;2023-08-30T12:53:23;99475.38;;;24.88;43.60
72558;BME280;60583;50.094;8.748;2023-08-30T12:55:49;99466.97;;;24.01;45.19
72558;BME280;60583;50.094;8.748;2023-08-30T12:58:14;99471.47;;;23.47;47.21
72558;BME280;60583;50.094;8.748;2023-08-30T13:00:40;99461.72;;;22.92;48.65